Nearby METAR Reports

 

KFRG - , , USA
Distance from station: SSW 12mi, 20km
Updated: 07/19/2024 5:53pm
Partly cloudy
Partly cloudy
 Wind from varies
Wind: varies 6 mph , 9 km/h
Temperature: 81°F , 27°C
Heat Index: 81°F , 27°C
Dew Point: 55°F , 13°C
Humidity: 42%
Barometer: 30.08 inHg , 1018.6 hPa
Clouds: Partly cloudy
Visibility: 10 miles , 16 km
Cloud details: Partly cloudy 6500 ft
2024/07/19 21:53 KFRG 192153Z VRB05KT 10SM SCT065 27/13 A3008 RMK AO2 SLP185 T02670133 $
KISP - , , USA
Distance from station: ESE 14mi, 23km
Updated: 07/19/2024 5:56pm
Partly cloudy
Partly cloudy
 Wind from SW
Wind: SW 10 mph , 17 km/h
Temperature: 79°F , 26°C
Dew Point: 61°F , 16°C
Humidity: 54%
Barometer: 30.08 inHg , 1018.6 hPa
Clouds: Partly cloudy
Visibility: 10 miles , 16 km
Cloud details: Few Clouds 6000 ft
Partly cloudy 25000 ft
2024/07/19 21:56 KISP 192156Z 22009KT 10SM FEW060 SCT250 26/16 A3008 RMK AO2 SLP185 T02610156
 
KBDR - , , USA
Distance from station: NNE 21mi, 34km
Updated: 07/19/2024 5:52pm
Mostly cloudy
Mostly cloudy
 Wind from SSW
Wind: SSW 9 mph , 15 km/h
Temperature: 81°F , 27°C
Heat Index: 81°F , 27°C
Dew Point: 57°F , 14°C
Humidity: 45%
Barometer: 30.07 inHg , 1018.3 hPa
Clouds: Mostly cloudy
Visibility: 10 miles , 16 km
Cloud details: Mostly cloudy 6500 ft
2024/07/19 21:52 KBDR 192152Z 20008KT 10SM BKN065 27/14 A3007 RMK AO2 SLP184 T02670144
KHPN - , , USA
Distance from station: WNW 22mi, 35km
Updated: 07/19/2024 5:56pm
Clear
Clear
 Wind from WNW
Wind: WNW 5 mph , 7 km/h
Temperature: 81°F , 27°C
Heat Index: 81°F , 27°C
Dew Point: 55°F , 13°C
Humidity: 42%
Barometer: 30.09 inHg , 1019 hPa
Clouds: Clear
Visibility: 10 miles , 16 km
2024/07/19 21:56 KHPN 192156Z 29004KT 10SM CLR 27/13 A3009 RMK AO2 SLP182 T02720133
 
KHWV - , , USA
Distance from station: ESE 26mi, 41km
Updated: 07/19/2024 5:56pm
Clear
Clear
 Wind from SSW
Wind: SSW 7 mph , 11 km/h
Temperature: 79°F , 26°C
Dew Point: 61°F , 16°C
Humidity: 54%
Barometer: 30.09 inHg , 1019 hPa
Clouds: Clear
Visibility: 10 miles , 16 km
2024/07/19 21:56 KHWV 192156Z AUTO 21006KT 10SM CLR 26/16 A3009 RMK AO2 SLP188 T02610161
KJFK - , , USA
Distance from station: SW 29mi, 46km
Updated: 07/19/2024 5:51pm
Partly cloudy
Partly cloudy
 Wind from S
Wind: S 9 mph , 15 km/h
Temperature: 79°F , 26°C
Dew Point: 63°F , 17°C
Humidity: 58%
Barometer: 30.08 inHg , 1018.6 hPa
Clouds: Partly cloudy
Visibility: 10 miles , 16 km
Cloud details: Partly cloudy 7500 ft
Partly cloudy 25000 ft
2024/07/19 21:51 KJFK 192151Z 17008KT 10SM SCT075 SCT250 26/17 A3008 RMK AO2 SLP191 T02610172 $
 
KLGA - , , USA
Distance from station: WSW 29mi, 47km
Updated: 07/19/2024 5:51pm
Partly cloudy
Partly cloudy
 Wind from ENE
Wind: ENE 7 mph , 11 km/h
Temperature: 82°F , 28°C
Dew Point: 52°F , 11°C
Humidity: 35%
Barometer: 30.06 inHg , 1017.9 hPa
Clouds: Partly cloudy
Visibility: 10 miles , 16 km
Cloud details: Partly cloudy 7000 ft
Partly cloudy 25000 ft
2024/07/19 21:51 KLGA 192151Z 07006KT 10SM SCT070 SCT250 28/11 A3006 RMK AO2 SLP180 T02830106